createdAt,value
2019-02-19T00:01:01.337Z,18.65
2019-02-19T00:02:06.984Z,19.67
2019-02-19T00:03:11.085Z,19.20
2019-02-19T00:04:15.274Z,20.75
2019-02-19T00:05:19.284Z,18.65
2019-02-19T00:06:23.538Z,18.48
2019-02-19T00:07:27.713Z,17.27
2019-02-19T00:08:31.954Z,14.80
2019-02-19T00:09:35.902Z,15.35
2019-02-19T00:10:39.906Z,14.47
2019-02-19T00:11:44.083Z,12.98
2019-02-19T00:12:48.343Z,12.10
2019-02-19T00:13:52.521Z,11.57
2019-02-19T00:14:56.563Z,11.90
2019-02-19T00:16:00.500Z,11.38
2019-02-19T00:17:04.431Z,11.18
2019-02-19T00:18:08.433Z,11.10
2019-02-19T00:19:12.366Z,10.32
2019-02-19T00:20:16.312Z,10.28
2019-02-19T00:21:20.315Z,10.85
2019-02-19T00:22:24.318Z,10.70
2019-02-19T00:23:28.504Z,11.25
2019-02-19T00:24:32.498Z,10.78
2019-02-19T00:25:36.760Z,10.98
2019-02-19T00:26:42.196Z,12.43
2019-02-19T00:27:46.606Z,12.05
2019-02-19T00:28:51.196Z,11.68
2019-02-19T00:29:55.483Z,12.10
2019-02-19T00:30:59.613Z,11.83
2019-02-19T00:32:03.838Z,11.90
2019-02-19T00:33:08.334Z,11.60
2019-02-19T00:34:13.043Z,12.13
2019-02-19T00:35:17.559Z,10.68
2019-02-19T00:36:21.557Z,9.75
2019-02-19T00:37:25.620Z,8.93
2019-02-19T00:38:29.573Z,10.20
2019-02-19T00:39:33.972Z,10.45
2019-02-19T00:40:38.073Z,9.55
2019-02-19T00:41:42.075Z,9.98
2019-02-19T00:42:46.062Z,9.53
2019-02-19T00:43:50.276Z,9.15
2019-02-19T00:44:54.229Z,9.18
2019-02-19T00:45:58.152Z,9.08
2019-02-19T00:47:02.494Z,8.80
2019-02-19T00:48:06.737Z,9.90
2019-02-19T00:49:10.665Z,9.48
2019-02-19T00:50:14.902Z,10.03
2019-02-19T00:51:19.107Z,9.28
2019-02-19T00:52:23.407Z,9.93
2019-02-19T00:53:27.407Z,9.73
2019-02-19T00:54:31.986Z,10.75
2019-02-19T00:55:36.234Z,10.38
2019-02-19T00:56:40.423Z,10.30
2019-02-19T00:57:44.678Z,9.60
2019-02-19T00:58:48.606Z,9.78
2019-02-19T00:59:52.615Z,10.68
2019-02-19T01:00:56.564Z,10.05
2019-02-19T01:02:00.731Z,10.65
2019-02-19T01:03:05.040Z,11.10
2019-02-19T01:04:09.287Z,10.08
2019-02-19T01:05:13.486Z,11.35
2019-02-19T01:06:17.506Z,10.98
2019-02-19T01:07:21.766Z,10.28
2019-02-19T01:08:25.798Z,10.15
2019-02-19T01:09:29.969Z,10.20
2019-02-19T01:10:33.970Z,10.32
2019-02-19T01:11:38.159Z,10.03
2019-02-19T01:12:42.330Z,11.80
2019-02-19T01:13:46.589Z,11.03
2019-02-19T01:14:50.835Z,11.40
2019-02-19T01:15:55.545Z,11.00
2019-02-19T01:16:59.838Z,11.50
2019-02-19T01:18:03.838Z,11.88
2019-02-19T01:19:08.150Z,12.73
2019-02-19T01:20:12.164Z,12.68
2019-02-19T01:21:16.178Z,13.05
2019-02-19T01:22:20.838Z,12.37
2019-02-19T01:23:24.855Z,12.40
2019-02-19T01:24:29.103Z,12.88
2019-02-19T01:25:33.034Z,11.48
2019-02-19T01:26:37.430Z,12.13
2019-02-19T01:27:41.367Z,11.80
2019-02-19T01:28:45.896Z,11.08
2019-02-19T01:29:50.411Z,11.10
2019-02-19T01:30:54.477Z,11.08
2019-02-19T01:31:58.523Z,10.63
2019-02-19T01:33:02.506Z,10.82
2019-02-19T01:34:06.649Z,10.40
2019-02-19T01:35:11.028Z,10.23
2019-02-19T01:36:14.958Z,9.55
2019-02-19T01:37:19.029Z,9.98
2019-02-19T01:38:23.087Z,9.98
2019-02-19T01:39:26.904Z,10.75
2019-02-19T01:40:30.839Z,10.32
2019-02-19T01:41:34.857Z,11.20
2019-02-19T01:42:38.962Z,11.63
2019-02-19T01:43:43.123Z,11.60
2019-02-19T01:44:47.408Z,11.55
2019-02-19T01:45:51.366Z,11.88
2019-02-19T01:46:55.313Z,12.25
2019-02-19T01:47:59.239Z,11.90
2019-02-19T01:49:03.550Z,13.43
2019-02-19T01:50:08.325Z,12.10
2019-02-19T01:51:12.566Z,10.63
2019-02-19T01:52:16.826Z,12.20
2019-02-19T01:53:20.997Z,11.45
2019-02-19T01:54:25.506Z,11.68
2019-02-19T01:55:29.607Z,12.07
2019-02-19T01:56:33.870Z,12.73
2019-02-19T01:57:37.814Z,13.20
2019-02-19T01:58:41.986Z,13.38
2019-02-19T01:59:45.843Z,14.20
2019-02-19T02:00:49.844Z,13.75
2019-02-19T02:01:53.771Z,14.13
2019-02-19T02:02:57.651Z,15.25
2019-02-19T02:04:01.749Z,15.32
2019-02-19T02:05:06.045Z,14.87
2019-02-19T02:06:10.047Z,18.12
2019-02-19T02:07:14.067Z,16.25
2019-02-19T02:08:17.998Z,17.85
2019-02-19T02:09:21.999Z,15.40
2019-02-19T02:10:25.924Z,17.20
2019-02-19T02:11:30.057Z,18.35
2019-02-19T02:12:34.004Z,13.62
2019-02-19T02:13:38.350Z,16.85
2019-02-19T02:14:42.273Z,16.48
2019-02-19T02:15:46.445Z,15.05
2019-02-19T02:16:50.455Z,15.45
2019-02-19T02:17:54.395Z,15.30
2019-02-19T02:18:58.571Z,15.43
2019-02-19T02:20:02.570Z,14.95
2019-02-19T02:21:06.831Z,14.85
2019-02-19T02:22:10.819Z,15.53
2019-02-19T02:23:15.004Z,15.13
2019-02-19T02:24:19.002Z,14.40
2019-02-19T02:25:23.640Z,16.93
2019-02-19T02:26:27.823Z,16.95
2019-02-19T02:27:31.680Z,15.80
2019-02-19T02:28:35.802Z,16.48
2019-02-19T02:29:39.895Z,15.68
2019-02-19T02:30:43.846Z,16.35
2019-02-19T02:31:47.991Z,15.23
2019-02-19T02:32:52.024Z,14.38
2019-02-19T02:33:55.879Z,15.75
2019-02-19T02:34:59.747Z,14.70
2019-02-19T02:36:03.822Z,15.80
2019-02-19T02:37:07.935Z,15.85
2019-02-19T02:38:12.305Z,15.90
2019-02-19T02:39:16.237Z,15.43
2019-02-19T02:40:20.508Z,15.20
2019-02-19T02:41:24.514Z,14.07
2019-02-19T02:42:28.949Z,15.03
2019-02-19T02:43:33.129Z,14.40
2019-02-19T02:44:37.121Z,15.32
2019-02-19T02:45:41.331Z,15.38
2019-02-19T02:46:45.541Z,15.15
2019-02-19T02:47:49.541Z,14.87
2019-02-19T02:48:53.671Z,15.45
2019-02-19T02:49:57.857Z,14.35
2019-02-19T02:51:01.784Z,15.60
2019-02-19T02:52:05.707Z,13.90
2019-02-19T02:53:09.644Z,14.30
2019-02-19T02:54:13.827Z,14.33
2019-02-19T02:55:17.759Z,14.25
2019-02-19T02:56:21.763Z,14.28
2019-02-19T02:57:26.273Z,14.78
2019-02-19T02:58:30.382Z,13.58
2019-02-19T02:59:34.310Z,14.00
2019-02-19T03:00:38.812Z,14.28
2019-02-19T03:01:43.241Z,14.80
2019-02-19T03:02:47.116Z,15.28
2019-02-19T03:03:51.565Z,14.18
2019-02-19T03:04:55.673Z,14.60
2019-02-19T03:06:11.682Z,14.20
2019-02-19T03:07:29.323Z,13.60
2019-02-19T03:08:33.512Z,13.03
2019-02-19T03:09:37.440Z,11.57
2019-02-19T03:10:41.622Z,12.47
2019-02-19T03:11:46.329Z,11.70
2019-02-19T03:12:50.546Z,12.03
2019-02-19T03:13:54.488Z,12.78
2019-02-19T03:14:58.912Z,13.43
2019-02-19T03:16:03.167Z,13.95
2019-02-19T03:17:07.022Z,12.35
2019-02-19T03:18:10.884Z,12.20
2019-02-19T03:19:15.155Z,11.33
2019-02-19T03:20:19.406Z,12.63
2019-02-19T03:21:23.402Z,13.28
2019-02-19T03:22:27.350Z,13.58
2019-02-19T03:23:31.280Z,14.45
2019-02-19T03:24:35.885Z,13.98
2019-02-19T03:25:39.817Z,14.73
2019-02-19T03:26:44.296Z,14.93
2019-02-19T03:27:48.230Z,13.68
2019-02-19T03:28:52.169Z,15.08
2019-02-19T03:29:56.710Z,14.03
2019-02-19T03:31:00.916Z,14.58
2019-02-19T03:32:04.962Z,16.07
2019-02-19T03:33:09.431Z,14.75
2019-02-19T03:34:13.297Z,15.72
2019-02-19T03:35:17.368Z,14.05
2019-02-19T03:36:21.303Z,14.93
2019-02-19T03:37:25.941Z,15.43
2019-02-19T03:38:29.976Z,15.10
2019-02-19T03:39:33.959Z,14.40
2019-02-19T03:40:38.149Z,15.72
2019-02-19T03:41:42.087Z,15.32
2019-02-19T03:42:46.029Z,14.63
2019-02-19T03:43:50.313Z,14.30
2019-02-19T03:44:54.880Z,15.00
2019-02-19T03:45:58.804Z,14.73
2019-02-19T03:47:03.021Z,15.68
2019-02-19T03:48:07.288Z,14.73
2019-02-19T03:49:11.589Z,14.87
2019-02-19T03:50:16.214Z,14.55
2019-02-19T03:51:20.413Z,14.20
2019-02-19T03:52:24.411Z,15.13
2019-02-19T03:53:28.823Z,14.43
2019-02-19T03:54:33.132Z,14.28
2019-02-19T03:55:37.851Z,14.03
2019-02-19T03:56:41.968Z,14.80
2019-02-19T03:57:46.086Z,14.87
2019-02-19T03:58:50.018Z,15.15
2019-02-19T03:59:54.101Z,14.18
2019-02-19T04:00:58.883Z,13.95
2019-02-19T04:02:03.225Z,14.18
2019-02-19T04:03:07.800Z,12.15
2019-02-19T04:04:12.088Z,13.10
2019-02-19T04:05:16.417Z,11.97
2019-02-19T04:06:20.418Z,11.93
2019-02-19T04:07:24.347Z,12.37
2019-02-19T04:08:28.277Z,13.62
2019-02-19T04:09:32.207Z,13.50
2019-02-19T04:10:36.461Z,15.55
2019-02-19T04:11:40.389Z,13.22
2019-02-19T04:12:44.647Z,13.60
2019-02-19T04:13:48.822Z,15.35
2019-02-19T04:14:52.995Z,14.15
2019-02-19T04:15:57.024Z,15.32
2019-02-19T04:17:01.267Z,14.63
2019-02-19T04:18:05.442Z,14.38
2019-02-19T04:19:09.619Z,15.38
2019-02-19T04:20:14.121Z,15.58
2019-02-19T04:21:18.400Z,15.05
2019-02-19T04:22:22.323Z,14.60
2019-02-19T04:23:26.423Z,14.18
2019-02-19T04:24:30.278Z,15.20
2019-02-19T04:25:34.396Z,15.68
2019-02-19T04:26:38.831Z,14.87
2019-02-19T04:27:43.078Z,13.95
2019-02-19T04:28:46.930Z,14.55
2019-02-19T04:29:51.032Z,15.00
2019-02-19T04:30:54.988Z,14.93
2019-02-19T04:31:58.835Z,15.28
2019-02-19T04:33:03.355Z,14.98
2019-02-19T04:34:07.571Z,15.10
2019-02-19T04:35:11.610Z,15.38
2019-02-19T04:36:15.912Z,14.53
2019-02-19T04:37:19.937Z,15.18
2019-02-19T04:38:23.973Z,15.28
2019-02-19T04:39:28.001Z,16.12
2019-02-19T04:40:32.413Z,16.02
2019-02-19T04:41:36.452Z,18.65
2019-02-19T04:42:40.481Z,19.92
2019-02-19T04:43:44.751Z,15.95
2019-02-19T04:44:48.709Z,17.98
2019-02-19T04:45:52.746Z,19.95
2019-02-19T04:46:56.791Z,21.30
2019-02-19T04:48:01.084Z,17.15
2019-02-19T04:49:05.648Z,18.95
2019-02-19T04:50:09.695Z,21.20
2019-02-19T04:51:14.249Z,20.55
2019-02-19T04:52:18.226Z,20.15
2019-02-19T04:53:22.241Z,20.23
2019-02-19T04:54:26.513Z,21.05
2019-02-19T04:55:30.550Z,20.02
2019-02-19T04:56:34.734Z,22.37
2019-02-19T04:57:38.679Z,22.52
2019-02-19T04:58:42.637Z,21.40
2019-02-19T04:59:46.658Z,22.35
2019-02-19T05:00:50.971Z,24.23
2019-02-19T05:01:54.938Z,27.93
2019-02-19T05:02:59.231Z,28.40
2019-02-19T05:04:03.536Z,22.15
2019-02-19T05:05:07.564Z,21.27
2019-02-19T05:06:11.520Z,20.57
2019-02-19T05:07:15.550Z,20.60
2019-02-19T05:08:19.912Z,20.88
2019-02-19T05:09:24.049Z,20.50
2019-02-19T05:10:28.258Z,21.52
2019-02-19T05:11:32.231Z,23.10
2019-02-19T05:12:36.165Z,20.43
2019-02-19T05:13:40.185Z,17.15
2019-02-19T05:14:44.060Z,19.62
2019-02-19T05:15:48.089Z,22.40
2019-02-19T05:16:52.363Z,21.50
2019-02-19T05:17:56.816Z,23.52
2019-02-19T05:19:00.709Z,19.42
2019-02-19T05:20:05.372Z,21.23
2019-02-19T05:21:09.695Z,19.85
2019-02-19T05:22:13.728Z,23.50
2019-02-19T05:23:18.113Z,21.75
2019-02-19T05:24:22.052Z,18.02
2019-02-19T05:25:26.100Z,21.90
2019-02-19T05:26:30.048Z,25.05
2019-02-19T05:27:34.429Z,18.48
2019-02-19T05:28:38.728Z,17.50
2019-02-19T05:29:42.771Z,17.57
2019-02-19T05:30:47.042Z,17.55
2019-02-19T05:31:51.070Z,19.23
2019-02-19T05:32:55.154Z,19.67
2019-02-19T05:33:59.204Z,19.15
2019-02-19T05:35:03.571Z,26.95
2019-02-19T05:36:09.125Z,20.17
2019-02-19T05:37:13.503Z,26.48
2019-02-19T05:38:17.404Z,17.90
2019-02-19T05:39:22.018Z,22.42
2019-02-19T05:40:26.321Z,23.62
2019-02-19T05:41:30.353Z,16.27
2019-02-19T05:42:35.249Z,18.52
2019-02-19T05:43:39.462Z,19.75
2019-02-19T05:44:43.833Z,10.90
2019-02-19T05:45:48.106Z,15.00
2019-02-19T05:46:52.374Z,19.62
2019-02-19T05:47:56.425Z,18.90
2019-02-19T05:49:00.762Z,18.25
2019-02-19T05:50:05.124Z,19.32
2019-02-19T05:51:09.148Z,22.42
2019-02-19T05:52:13.231Z,22.98
2019-02-19T05:53:17.252Z,20.50
2019-02-19T05:54:21.267Z,20.02
2019-02-19T05:55:25.662Z,21.57
2019-02-19T05:56:30.268Z,20.68
2019-02-19T05:57:34.304Z,20.27
2019-02-19T05:58:38.414Z,18.82
2019-02-19T05:59:42.417Z,20.55
2019-02-19T06:00:46.609Z,21.68
2019-02-19T06:01:50.523Z,22.75
2019-02-19T06:02:54.694Z,23.73
2019-02-19T06:03:58.713Z,22.70
2019-02-19T06:05:02.890Z,24.02
2019-02-19T06:06:06.893Z,22.87
2019-02-19T06:07:11.016Z,17.00
2019-02-19T06:08:15.443Z,22.25
2019-02-19T06:09:19.460Z,21.10
2019-02-19T06:10:23.892Z,15.63
2019-02-19T06:11:27.814Z,16.77
2019-02-19T06:12:31.915Z,20.80
2019-02-19T06:13:36.040Z,16.67
2019-02-19T06:14:40.276Z,21.15
2019-02-19T06:15:44.276Z,20.60
2019-02-19T06:16:48.528Z,12.95
2019-02-19T06:17:52.737Z,20.10
2019-02-19T06:18:56.700Z,19.98
2019-02-19T06:20:00.890Z,20.35
2019-02-19T06:21:05.134Z,20.50
2019-02-19T06:22:09.311Z,22.90
2019-02-19T06:23:13.754Z,23.90
2019-02-19T06:24:17.968Z,26.52
2019-02-19T06:25:21.891Z,24.80
2019-02-19T06:26:25.830Z,24.32
2019-02-19T06:27:30.098Z,23.12
2019-02-19T06:28:34.160Z,23.57
2019-02-19T06:29:38.961Z,22.20
2019-02-19T06:30:42.881Z,22.85
2019-02-19T06:31:55.193Z,22.77
2019-02-19T06:32:53.394Z,22.15
2019-02-19T06:33:57.338Z,20.65
2019-02-19T06:35:01.558Z,23.25
2019-02-19T06:36:05.838Z,22.32
2019-02-19T06:37:10.003Z,22.98
2019-02-19T06:38:13.947Z,23.57
2019-02-19T06:39:18.579Z,23.00
2019-02-19T06:40:27.437Z,22.73
2019-02-19T06:41:31.442Z,21.73
2019-02-19T06:42:35.450Z,22.60
2019-02-19T06:43:39.531Z,22.37
2019-02-19T06:44:43.785Z,23.32
2019-02-19T06:45:47.716Z,23.73
2019-02-19T06:46:51.991Z,24.18
2019-02-19T06:47:55.995Z,23.07
2019-02-19T06:49:00.094Z,24.30
2019-02-19T06:50:04.406Z,22.10
2019-02-19T06:51:08.336Z,22.05
2019-02-19T06:52:12.261Z,22.87
2019-02-19T06:53:16.435Z,16.65
2019-02-19T06:54:20.955Z,21.52
2019-02-19T06:55:25.202Z,17.02
2019-02-19T06:56:29.551Z,7.80
2019-02-19T06:57:33.722Z,20.05
2019-02-19T06:58:37.899Z,17.45
2019-02-19T06:59:42.114Z,19.37
2019-02-19T07:00:46.223Z,13.28
2019-02-19T07:02:14.486Z,16.30
2019-02-19T07:03:23.454Z,22.20
2019-02-19T07:04:34.707Z,23.25
2019-02-19T07:05:38.706Z,15.43
2019-02-19T07:06:42.633Z,19.20
2019-02-19T07:07:46.917Z,22.77
2019-02-19T07:08:50.849Z,24.80
2019-02-19T07:09:54.864Z,23.77
2019-02-19T07:10:59.201Z,17.85
2019-02-19T07:12:03.138Z,23.87
2019-02-19T07:13:07.450Z,22.73
2019-02-19T07:14:11.453Z,25.20
2019-02-19T07:15:15.710Z,22.48
2019-02-19T07:16:19.916Z,22.45
2019-02-19T07:17:23.766Z,23.87
2019-02-19T07:18:27.694Z,21.68
2019-02-19T07:19:31.955Z,21.87
2019-02-19T07:20:35.936Z,27.17
2019-02-19T07:21:39.989Z,25.77
2019-02-19T07:22:43.988Z,25.12
2019-02-19T07:23:48.366Z,26.62
2019-02-19T07:24:52.679Z,26.20
2019-02-19T07:25:56.762Z,20.55
2019-02-19T07:27:00.702Z,27.02
2019-02-19T07:28:04.751Z,31.70
2019-02-19T07:29:08.606Z,26.20
2019-02-19T07:30:12.739Z,29.63
2019-02-19T07:31:17.055Z,25.70
2019-02-19T07:32:21.209Z,26.52
2019-02-19T07:33:27.362Z,33.30
2019-02-19T07:34:31.651Z,34.23
2019-02-19T07:35:35.855Z,37.13
2019-02-19T07:36:39.982Z,32.58
2019-02-19T07:37:44.374Z,23.40
2019-02-19T07:38:48.678Z,23.32
2019-02-19T07:39:52.618Z,27.10
2019-02-19T07:40:56.732Z,31.30
2019-02-19T07:42:01.091Z,36.05
2019-02-19T07:43:05.102Z,44.30
2019-02-19T07:44:09.039Z,53.70
2019-02-19T07:45:13.410Z,46.68
2019-02-19T07:46:19.220Z,40.40
2019-02-19T07:47:24.858Z,42.30
2019-02-19T07:48:29.457Z,46.90
2019-02-19T07:49:33.603Z,44.42
2019-02-19T07:50:37.555Z,50.20
2019-02-19T07:51:42.731Z,42.00
2019-02-19T07:52:47.243Z,42.70
2019-02-19T07:53:51.133Z,43.85
2019-02-19T07:54:58.249Z,42.30
2019-02-19T07:56:02.681Z,42.98
2019-02-19T07:57:07.000Z,44.27
2019-02-19T07:58:11.184Z,38.02
2019-02-19T07:59:15.415Z,36.50
2019-02-19T08:00:20.369Z,38.67
2019-02-19T08:01:24.645Z,38.08
2019-02-19T08:02:28.578Z,36.80
2019-02-19T08:03:32.883Z,35.78
2019-02-19T08:04:36.816Z,32.45
2019-02-19T08:05:41.003Z,30.95
2019-02-19T08:06:44.953Z,31.50
2019-02-19T08:07:48.884Z,28.77
2019-02-19T08:08:53.079Z,27.48
2019-02-19T08:09:56.929Z,27.62
2019-02-19T08:11:01.121Z,30.30
2019-02-19T08:12:05.366Z,28.42
2019-02-19T08:13:09.796Z,25.43
2019-02-19T08:14:13.912Z,17.40
2019-02-19T08:15:17.908Z,15.32
2019-02-19T08:16:21.842Z,23.27
2019-02-19T08:17:33.077Z,23.67
2019-02-19T08:18:31.942Z,30.57
2019-02-19T08:19:36.039Z,29.37
2019-02-19T08:20:39.962Z,30.88
2019-02-19T08:21:43.979Z,25.55
2019-02-19T08:22:48.229Z,27.65
2019-02-19T08:23:52.335Z,24.95
2019-02-19T08:24:56.269Z,24.30
2019-02-19T08:26:00.490Z,21.02
2019-02-19T08:27:04.753Z,26.95
2019-02-19T08:28:08.998Z,27.05
2019-02-19T08:29:14.044Z,20.43
2019-02-19T08:30:18.155Z,29.85
2019-02-19T08:31:22.495Z,28.85
2019-02-19T08:32:27.064Z,25.77
2019-02-19T08:33:31.195Z,26.35
2019-02-19T08:34:35.126Z,22.60
2019-02-19T08:35:39.573Z,25.12
2019-02-19T08:36:45.386Z,24.30
2019-02-19T08:37:49.773Z,29.20
2019-02-19T08:38:53.878Z,28.77
2019-02-19T08:39:57.978Z,23.38
2019-02-19T08:41:02.241Z,26.73
2019-02-19T08:42:06.851Z,26.55
2019-02-19T08:43:11.364Z,30.12
2019-02-19T08:44:16.091Z,28.75
2019-02-19T08:45:20.135Z,31.33
2019-02-19T08:46:24.802Z,31.10
2019-02-19T08:47:29.010Z,34.15
2019-02-19T08:48:33.142Z,34.33
2019-02-19T08:49:37.416Z,34.15
2019-02-19T08:50:41.693Z,35.92
2019-02-19T08:51:45.579Z,32.48
2019-02-19T08:52:49.950Z,32.38
2019-02-19T08:53:54.242Z,39.27
2019-02-19T08:54:58.103Z,37.08
2019-02-19T08:56:02.398Z,41.23
2019-02-19T08:57:06.695Z,46.02
2019-02-19T08:58:10.702Z,45.55
2019-02-19T08:59:14.659Z,49.08
2019-02-19T09:00:18.843Z,48.73
2019-02-19T09:01:22.854Z,49.00
2019-02-19T09:02:27.295Z,45.90
2019-02-19T09:03:31.499Z,42.93
2019-02-19T09:04:36.255Z,44.93
2019-02-19T09:05:40.288Z,49.93
2019-02-19T09:06:44.624Z,49.08
2019-02-19T09:07:48.490Z,50.48
2019-02-19T09:08:52.969Z,50.70
2019-02-19T09:09:56.827Z,51.95
2019-02-19T09:11:01.026Z,54.58
2019-02-19T09:12:04.984Z,54.42
2019-02-19T09:13:09.235Z,53.05
2019-02-19T09:14:13.178Z,53.05
2019-02-19T09:15:17.364Z,54.30
2019-02-19T09:16:21.641Z,60.35
2019-02-19T09:17:25.666Z,56.98
2019-02-19T09:18:30.008Z,59.15
2019-02-19T09:19:33.946Z,60.50
2019-02-19T09:20:37.881Z,60.12
2019-02-19T09:21:42.461Z,58.10
2019-02-19T09:22:46.416Z,56.18
2019-02-19T09:23:50.440Z,55.60
2019-02-19T09:24:55.379Z,53.92
2019-02-19T09:26:00.019Z,53.17
2019-02-19T09:27:04.036Z,48.08
2019-02-19T09:28:08.326Z,47.70
2019-02-19T09:29:12.619Z,46.48
2019-02-19T09:30:16.636Z,45.70
2019-02-19T09:31:21.256Z,44.60
2019-02-19T09:32:25.421Z,44.05
2019-02-19T09:33:29.367Z,40.48
2019-02-19T09:34:33.298Z,40.40
2019-02-19T09:35:37.227Z,40.15
2019-02-19T09:36:41.153Z,39.48
2019-02-19T09:37:45.343Z,40.15
2019-02-19T09:38:50.123Z,38.70
2019-02-19T09:39:54.231Z,37.00
2019-02-19T09:40:58.331Z,36.40
2019-02-19T09:42:11.520Z,36.25
2019-02-19T09:43:15.767Z,36.33
2019-02-19T09:44:19.784Z,35.17
2019-02-19T09:45:23.711Z,36.68
2019-02-19T09:46:27.954Z,35.73
2019-02-19T09:47:32.130Z,42.45
2019-02-19T09:48:36.314Z,43.15
2019-02-19T09:49:40.250Z,40.60
2019-02-19T09:50:44.250Z,43.17
2019-02-19T09:51:48.195Z,54.05
2019-02-19T09:52:59.735Z,53.15
2019-02-19T09:53:58.035Z,41.75
2019-02-19T09:55:01.976Z,39.00
2019-02-19T09:56:05.982Z,39.70
2019-02-19T09:57:10.244Z,38.70
2019-02-19T09:58:14.160Z,37.17
2019-02-19T09:59:18.343Z,37.93
2019-02-19T10:00:22.276Z,35.13
2019-02-19T10:01:28.201Z,34.10
2019-02-19T10:02:32.009Z,34.83
2019-02-19T10:03:35.951Z,33.48
2019-02-19T10:04:39.883Z,32.17
2019-02-19T10:05:44.072Z,32.10
2019-02-19T10:06:48.075Z,32.08
2019-02-19T10:07:52.078Z,31.02
2019-02-19T10:08:56.095Z,30.02
2019-02-19T10:10:00.352Z,30.27
2019-02-19T10:11:04.328Z,28.25
2019-02-19T10:12:08.542Z,29.20
2019-02-19T10:13:12.553Z,28.20
2019-02-19T10:14:16.426Z,27.65
2019-02-19T10:15:20.749Z,27.55
2019-02-19T10:16:24.941Z,28.10
2019-02-19T10:17:29.136Z,28.02
2019-02-19T10:18:33.137Z,24.07
2019-02-19T10:19:37.449Z,24.85
2019-02-19T10:20:41.865Z,24.70
2019-02-19T10:21:46.091Z,32.50
2019-02-19T10:22:50.019Z,22.62
2019-02-19T10:23:54.296Z,20.70
2019-02-19T10:24:58.504Z,17.90
2019-02-19T10:26:02.527Z,20.97
2019-02-19T10:27:06.503Z,22.25
2019-02-19T10:28:10.639Z,25.82
2019-02-19T10:29:14.923Z,23.52
2019-02-19T10:30:19.026Z,22.80
2019-02-19T10:31:23.613Z,12.93
2019-02-19T10:32:28.126Z,10.85
2019-02-19T10:33:32.197Z,10.28
2019-02-19T10:34:36.061Z,8.50
2019-02-19T10:35:40.334Z,8.03
2019-02-19T10:36:44.846Z,9.30
2019-02-19T10:37:49.022Z,7.92
2019-02-19T10:38:52.965Z,9.73
2019-02-19T10:39:56.910Z,15.00
2019-02-19T10:41:01.464Z,12.85
2019-02-19T10:42:05.720Z,13.38
2019-02-19T10:43:09.642Z,15.40
2019-02-19T10:44:13.522Z,14.05
2019-02-19T10:45:18.207Z,15.13
2019-02-19T10:46:22.205Z,14.87
2019-02-19T10:47:26.212Z,13.15
2019-02-19T10:48:30.726Z,11.60
2019-02-19T10:49:34.920Z,12.35
2019-02-19T10:50:39.023Z,8.58
2019-02-19T10:51:43.126Z,7.72
2019-02-19T10:52:47.296Z,8.35
2019-02-19T10:53:51.218Z,8.08
2019-02-19T10:54:55.080Z,8.15
2019-02-19T10:55:59.371Z,8.93
2019-02-19T10:57:03.383Z,7.72
2019-02-19T10:58:07.620Z,8.98
2019-02-19T10:59:11.758Z,8.90
2019-02-19T11:00:17.889Z,8.18
2019-02-19T11:01:21.918Z,8.35
2019-02-19T11:02:25.926Z,7.45
2019-02-19T11:03:29.940Z,7.75
2019-02-19T11:04:34.202Z,8.00
2019-02-19T11:05:38.394Z,8.33
2019-02-19T11:06:42.323Z,8.18
2019-02-19T11:07:46.586Z,8.95
2019-02-19T11:08:50.839Z,8.55
2019-02-19T11:09:54.836Z,9.20
2019-02-19T11:10:59.106Z,8.93
2019-02-19T11:12:03.118Z,9.35
2019-02-19T11:13:07.319Z,8.95
2019-02-19T11:14:11.486Z,10.88
2019-02-19T11:15:17.430Z,14.15
2019-02-19T11:16:21.557Z,15.20
2019-02-19T11:17:25.806Z,11.50
2019-02-19T11:18:30.019Z,11.12
2019-02-19T11:19:33.972Z,9.50
2019-02-19T11:20:37.990Z,10.03
2019-02-19T11:21:42.438Z,10.82
2019-02-19T11:22:47.132Z,10.78
2019-02-19T11:23:51.263Z,10.43
2019-02-19T11:24:55.627Z,10.75
2019-02-19T11:25:59.862Z,9.90
2019-02-19T11:27:03.878Z,10.75
2019-02-19T11:28:07.814Z,10.78
2019-02-19T11:29:12.085Z,11.50
2019-02-19T11:30:16.609Z,11.18
2019-02-19T11:31:20.551Z,11.45
2019-02-19T11:32:26.288Z,10.38
2019-02-19T11:33:30.819Z,10.45
2019-02-19T11:34:35.084Z,10.68
2019-02-19T11:35:39.189Z,11.10
2019-02-19T11:36:44.050Z,10.05
2019-02-19T11:37:48.000Z,10.88
2019-02-19T11:38:52.179Z,10.15
2019-02-19T11:39:56.463Z,10.32
2019-02-19T11:41:00.336Z,10.05
2019-02-19T11:42:04.925Z,9.73
2019-02-19T11:43:09.184Z,10.70
2019-02-19T11:44:13.391Z,10.18
2019-02-19T11:45:17.537Z,9.80
2019-02-19T11:46:21.748Z,9.10
2019-02-19T11:47:26.747Z,9.95
2019-02-19T11:48:36.906Z,10.03
2019-02-19T11:49:37.289Z,10.13
2019-02-19T11:50:42.229Z,9.50
2019-02-19T11:51:46.175Z,10.00
2019-02-19T11:52:50.352Z,9.45
2019-02-19T11:53:54.527Z,9.75
2019-02-19T11:54:58.384Z,10.03
2019-02-19T11:56:02.608Z,10.20
2019-02-19T11:57:06.608Z,10.18
2019-02-19T11:58:10.846Z,11.00
2019-02-19T11:59:14.846Z,10.75
2019-02-19T12:00:22.286Z,10.03
2019-02-19T12:01:26.587Z,10.25
2019-02-19T12:02:33.013Z,10.45
2019-02-19T12:03:36.541Z,10.90
2019-02-19T12:04:41.039Z,10.60
2019-02-19T12:05:45.289Z,9.75
2019-02-19T12:06:49.977Z,11.05
2019-02-19T12:07:53.993Z,9.93
2019-02-19T12:08:58.100Z,10.58
2019-02-19T12:10:02.483Z,10.88
2019-02-19T12:11:06.701Z,10.53
2019-02-19T12:12:10.987Z,11.03
2019-02-19T12:13:14.945Z,10.82
2019-02-19T12:14:18.805Z,10.20
2019-02-19T12:15:22.932Z,10.72
2019-02-19T12:16:27.227Z,10.40
2019-02-19T12:17:31.231Z,11.03
2019-02-19T12:18:35.096Z,11.08
2019-02-19T12:19:39.732Z,11.45
2019-02-19T12:20:44.003Z,10.70
2019-02-19T12:21:47.951Z,10.63
2019-02-19T12:22:52.232Z,10.98
2019-02-19T12:23:56.215Z,11.25
2019-02-19T12:25:00.290Z,10.80
2019-02-19T12:26:04.570Z,11.33
2019-02-19T12:27:09.013Z,11.88
2019-02-19T12:28:13.291Z,22.65
2019-02-19T12:29:17.591Z,15.30
2019-02-19T12:30:21.644Z,15.93
2019-02-19T12:31:25.547Z,13.20
2019-02-19T12:32:30.235Z,11.93
2019-02-19T12:33:34.499Z,11.25
2019-02-19T12:34:38.841Z,11.57
2019-02-19T12:35:42.886Z,11.80
2019-02-19T12:36:47.352Z,17.73
2019-02-19T12:37:51.560Z,18.82
2019-02-19T12:38:55.513Z,16.65
2019-02-19T12:39:59.586Z,14.28
2019-02-19T12:41:04.026Z,14.07
2019-02-19T12:42:08.384Z,13.88
2019-02-19T12:43:12.667Z,13.85
2019-02-19T12:44:16.608Z,13.95
2019-02-19T12:45:20.608Z,12.70
2019-02-19T12:46:24.633Z,13.45
2019-02-19T12:47:28.747Z,15.13
2019-02-19T12:48:33.087Z,15.35
2019-02-19T12:49:37.027Z,14.95
2019-02-19T12:50:41.033Z,13.83
2019-02-19T12:51:45.027Z,14.68
2019-02-19T12:52:49.419Z,12.70
2019-02-19T12:53:53.824Z,12.70
2019-02-19T12:54:57.764Z,11.55
2019-02-19T12:56:01.815Z,11.63
2019-02-19T12:57:06.134Z,10.95
2019-02-19T12:58:10.444Z,10.05
2019-02-19T12:59:17.206Z,9.70
2019-02-19T13:00:21.217Z,10.72
2019-02-19T13:01:28.498Z,11.38
2019-02-19T13:02:32.694Z,10.95
2019-02-19T13:03:36.765Z,10.03
2019-02-19T13:04:40.945Z,9.58
2019-02-19T13:05:44.938Z,9.45
2019-02-19T13:06:49.231Z,9.05
2019-02-19T13:07:53.624Z,9.23
2019-02-19T13:08:57.570Z,9.75
2019-02-19T13:10:01.784Z,9.63
2019-02-19T13:11:05.800Z,11.63
2019-02-19T13:12:10.740Z,9.00
2019-02-19T13:13:14.745Z,9.00
2019-02-19T13:14:19.059Z,8.95
2019-02-19T13:15:23.364Z,9.20
2019-02-19T13:16:27.503Z,8.73
2019-02-19T13:17:31.714Z,8.55
2019-02-19T13:18:35.730Z,7.87
2019-02-19T13:19:39.831Z,7.62
2019-02-19T13:20:43.830Z,7.37
2019-02-19T13:21:48.019Z,7.17
2019-02-19T13:22:51.951Z,7.40
2019-02-19T13:23:56.138Z,7.05
2019-02-19T13:24:59.996Z,7.30
2019-02-19T13:26:03.928Z,6.97
2019-02-19T13:27:07.950Z,7.10
2019-02-19T13:28:11.893Z,7.47
2019-02-19T13:29:15.898Z,6.55
2019-02-19T13:30:19.932Z,5.78
2019-02-19T13:31:23.928Z,5.62
2019-02-19T13:32:27.928Z,4.95
2019-02-19T13:33:31.875Z,4.50
2019-02-19T13:34:35.799Z,4.60
2019-02-19T13:35:40.047Z,4.67
2019-02-19T13:36:44.047Z,5.37
2019-02-19T13:37:48.231Z,5.08
2019-02-19T13:38:52.174Z,5.05
2019-02-19T13:39:56.184Z,4.90
2019-02-19T13:41:00.177Z,4.95
2019-02-19T13:42:04.104Z,4.70
2019-02-19T13:43:08.350Z,4.75
2019-02-19T13:44:12.642Z,4.72
2019-02-19T13:45:16.662Z,4.92
2019-02-19T13:46:20.622Z,5.22
2019-02-19T13:47:24.567Z,4.80
2019-02-19T13:48:28.627Z,4.62
2019-02-19T13:49:32.933Z,4.08
2019-02-19T13:50:36.953Z,4.10
2019-02-19T13:51:41.547Z,4.20
2019-02-19T13:53:03.416Z,4.28